Chemroad Wing — 3EAB8 — position and weather

sailwx.info

Track history (hours):
 
Tides and Currents Weather Stations Pressure Air Temp Water Temp Dewpoint Dewpoint Depression Visibility Wind Speed Wind Dir Waves Ship Positions

Chemroad Wing

Last reported at 2015-Aug-26 19:33 UTC. Time now 2015-Sep-03 17:12 UTC.
Position N 31°22' E 032°19'.

Length 170 m; draft 11.2 m.

Type: Ship (hazmat cat C). MMSI: 357740000.

Date/timePositionNaut miles runAvg speedWind from/ knotsBaromVisibWave heightAir tempDewpointWater temp
2015-Aug-26 19:33N 31°22' E 032°19'0 0.0
2015-Aug-26 18:32N 31°22' E 032°19'  
2015-Aug-23 19:25N 35°36' E 016°22'1313.7
2015-Aug-23 18:30N 35°39' E 016°07'1513.8
2015-Aug-23 17:23N 35°44' E 015°49'1313.6
2015-Aug-23 16:26N 35°47' E 015°34'1213.8
2015-Aug-23 15:33N 35°52' E 015°20'1513.9
2015-Aug-23 14:29N 35°58' E 015°03'1313.7
2015-Aug-23 13:33N 36°03' E 014°49'1413.6
2015-Aug-23 12:33N 36°08' E 014°33'1313.4
2015-Aug-23 11:34N 36°13' E 014°18'1413.7
2015-Aug-23 10:33N 36°19' E 014°02'1414.0
2015-Aug-23 09:33N 36°24' E 013°46'1414.1
2015-Aug-23 08:33N 36°30' E 013°30'1414.1
2015-Aug-23 07:33N 36°35' E 013°14'1514.3
2015-Aug-23 06:30N 36°41' E 012°57'1414.3
2015-Aug-23 05:33N 36°46' E 012°41'1514.7
2015-Aug-23 04:33N 36°52' E 012°24'1414.3
2015-Aug-23 03:33N 36°58' E 012°08'3313.9
2015-Aug-23 01:13N 37°13' E 011°32'4013.6
2015-Aug-22 22:17N 37°29' E 010°46'2413.8
2015-Aug-22 20:33N 37°33' E 010°16'1714.2
2015-Aug-22 19:22N 37°33' E 009°55'1214.1
2015-Aug-22 18:33N 37°33' E 009°40'1413.9
2015-Aug-22 17:33N 37°35' E 009°23'1413.6
2015-Aug-22 16:33N 37°36' E 009°06'1313.4
2015-Aug-22 15:33N 37°36' E 008°49'1413.5
2015-Aug-22 14:33N 37°35' E 008°32'14913.3
2015-Aug-22 03:23N 37°20' E 005°26'1113.3
2015-Aug-22 02:33N 37°19' E 005°12'1613.4
2015-Aug-22 01:22N 37°17' E 004°52'1213.5
2015-Aug-22 00:28N 37°16' E 004°37'1213.2
2015-Aug-21 23:33N 37°15' E 004°22'1313.2
2015-Aug-21 22:33N 37°13' E 004°05'1313.1
2015-Aug-21 21:33N 37°12' E 003°49'1313.2
2015-Aug-21 20:33N 37°09' E 003°33'1413.5
2015-Aug-21 19:33N 37°06' E 003°16'1313.2
2015-Aug-21 18:33N 37°05' E 002°60'1313.3
2015-Aug-21 17:33N 37°02' E 002°43'1313.1
2015-Aug-21 16:33N 37°00' E 002°27'1313.1
2015-Aug-21 15:33N 36°57' E 002°11'1312.6
2015-Aug-21 14:33N 36°55' E 001°56'1212.1
2015-Aug-21 13:33N 36°53' E 001°41'1212.3
2015-Aug-21 12:33N 36°52' E 001°25'1313.2
2015-Aug-21 11:33N 36°50' E 001°09'1414.0
2015-Aug-21 10:33N 36°47' E 000°52'1414.0
2015-Aug-21 09:33N 36°45' E 000°35'1313.2
2015-Aug-21 08:33N 36°42' E 000°19'1413.2
2015-Aug-21 07:28N 36°40' E 000°01'1213.4
2015-Aug-21 06:33N 36°38' W 000°14'1413.4
2015-Aug-21 05:32N 36°35' W 000°31'1413.4
2015-Aug-21 04:29N 36°33' W 000°48'1313.5
2015-Aug-21 03:33N 36°32' W 001°04'1413.6
2015-Aug-21 02:33N 36°29' W 001°20'  
Track history (hours):
 
Tides and Currents Weather Stations Pressure Air Temp Water Temp Dewpoint Dewpoint Depression Visibility Wind Speed Wind Dir Waves Ship Positions

Chemroad Wing

Last reported at 2015-Aug-26 19:33 UTC. Time now 2015-Sep-03 17:12 UTC.
Position N 31°22' E 032°19'.

Length 170 m; draft 11.2 m.

Type: Ship (hazmat cat C). MMSI: 357740000.

Date/timePositionNaut miles runAvg speedWind from/ knotsBaromVisibWave heightAir tempDewpointWater temp
2015-Aug-26 19:33N 31°22' E 032°19'0 0.0
2015-Aug-26 18:32N 31°22' E 032°19'  
2015-Aug-23 19:25N 35°36' E 016°22'1313.7
2015-Aug-23 18:30N 35°39' E 016°07'1513.8
2015-Aug-23 17:23N 35°44' E 015°49'1313.6
2015-Aug-23 16:26N 35°47' E 015°34'1213.8
2015-Aug-23 15:33N 35°52' E 015°20'1513.9
2015-Aug-23 14:29N 35°58' E 015°03'1313.7
2015-Aug-23 13:33N 36°03' E 014°49'1413.6
2015-Aug-23 12:33N 36°08' E 014°33'1313.4
2015-Aug-23 11:34N 36°13' E 014°18'1413.7
2015-Aug-23 10:33N 36°19' E 014°02'1414.0
2015-Aug-23 09:33N 36°24' E 013°46'1414.1
2015-Aug-23 08:33N 36°30' E 013°30'1414.1
2015-Aug-23 07:33N 36°35' E 013°14'1514.3
2015-Aug-23 06:30N 36°41' E 012°57'1414.3
2015-Aug-23 05:33N 36°46' E 012°41'1514.7
2015-Aug-23 04:33N 36°52' E 012°24'1414.3
2015-Aug-23 03:33N 36°58' E 012°08'3313.9
2015-Aug-23 01:13N 37°13' E 011°32'4013.6
2015-Aug-22 22:17N 37°29' E 010°46'2413.8
2015-Aug-22 20:33N 37°33' E 010°16'1714.2
2015-Aug-22 19:22N 37°33' E 009°55'1214.1
2015-Aug-22 18:33N 37°33' E 009°40'1413.9
2015-Aug-22 17:33N 37°35' E 009°23'1413.6
2015-Aug-22 16:33N 37°36' E 009°06'1313.4
2015-Aug-22 15:33N 37°36' E 008°49'1413.5
2015-Aug-22 14:33N 37°35' E 008°32'14913.3
2015-Aug-22 03:23N 37°20' E 005°26'1113.3
2015-Aug-22 02:33N 37°19' E 005°12'1613.4
2015-Aug-22 01:22N 37°17' E 004°52'1213.5
2015-Aug-22 00:28N 37°16' E 004°37'1213.2
2015-Aug-21 23:33N 37°15' E 004°22'1313.2
2015-Aug-21 22:33N 37°13' E 004°05'1313.1
2015-Aug-21 21:33N 37°12' E 003°49'1313.2
2015-Aug-21 20:33N 37°09' E 003°33'1413.5
2015-Aug-21 19:33N 37°06' E 003°16'1313.2
2015-Aug-21 18:33N 37°05' E 002°60'1313.3
2015-Aug-21 17:33N 37°02' E 002°43'1313.1
2015-Aug-21 16:33N 37°00' E 002°27'1313.1
2015-Aug-21 15:33N 36°57' E 002°11'1312.6
2015-Aug-21 14:33N 36°55' E 001°56'1212.1
2015-Aug-21 13:33N 36°53' E 001°41'1212.3
2015-Aug-21 12:33N 36°52' E 001°25'1313.2
2015-Aug-21 11:33N 36°50' E 001°09'1414.0
2015-Aug-21 10:33N 36°47' E 000°52'1414.0
2015-Aug-21 09:33N 36°45' E 000°35'1313.2
2015-Aug-21 08:33N 36°42' E 000°19'1413.2
2015-Aug-21 07:28N 36°40' E 000°01'1213.4
2015-Aug-21 06:33N 36°38' W 000°14'1413.4
2015-Aug-21 05:32N 36°35' W 000°31'1413.4
2015-Aug-21 04:29N 36°33' W 000°48'1313.5
2015-Aug-21 03:33N 36°32' W 001°04'1413.6
2015-Aug-21 02:33N 36°29' W 001°20'  

Dump ship's entire track history